Time;durP1;ratioP1;P1;durP2;ratioP2;P2;SDS_P1;SDS_P2;PMS_P1;PMS_P2;Temp;Humidity;BMP_temperature;BMP_pressure;BME280_temperature;BME280_humidity;BME280_pressure;Samples;Min_cycle;Max_cycle;Signal;HPM_P1;HPM_P2
2022/04/10 00:00:02;;;;;;;22.48;10.65;;;-1.50;99.90;;;;;;5053949;28;20052;-87
2022/04/10 00:02:29;;;;;;;21.27;9.07;;;-1.50;99.90;;;;;;5054769;28;20131;-88
2022/04/10 00:04:56;;;;;;;19.60;8.00;;;-1.50;99.90;;;;;;5054045;28;20049;-88
2022/04/10 00:07:22;;;;;;;12.52;6.35;;;-1.60;99.90;;;;;;5053599;28;20178;-88
2022/04/10 00:09:49;;;;;;;15.27;7.43;;;-1.70;99.90;;;;;;5054769;28;20140;-87
2022/04/10 00:12:16;;;;;;;15.73;7.63;;;-1.70;99.90;;;;;;5053802;28;20140;-88
2022/04/10 00:14:45;;;;;;;16.08;7.65;;;-1.70;99.90;;;;;;5054362;28;20056;-88
2022/04/10 00:17:12;;;;;;;16.38;8.15;;;-1.60;99.90;;;;;;5053762;28;20092;-87
2022/04/10 00:19:39;;;;;;;22.23;8.88;;;-1.70;99.90;;;;;;5054832;28;20083;-88
2022/04/10 00:22:06;;;;;;;22.27;9.63;;;-1.70;99.90;;;;;;5053774;28;20049;-88
2022/04/10 00:24:33;;;;;;;32.17;10.38;;;-1.70;99.90;;;;;;5053592;28;20053;-88
2022/04/10 00:27:00;;;;;;;18.08;7.57;;;-1.70;99.90;;;;;;5053706;28;20076;-87
2022/04/10 00:29:27;;;;;;;8.52;4.95;;;-1.90;99.90;;;;;;5054647;28;20069;-88
2022/04/10 00:31:54;;;;;;;7.90;4.97;;;-1.90;99.90;;;;;;5054430;28;20049;-87
2022/04/10 00:34:20;;;;;;;5.63;4.00;;;-1.80;99.90;;;;;;5053483;28;20049;-88
2022/04/10 00:36:47;;;;;;;7.03;5.43;;;-1.80;99.90;;;;;;5053315;28;20416;-87
2022/04/10 00:39:14;;;;;;;9.75;5.20;;;-1.80;99.90;;;;;;5053567;28;20128;-88
2022/04/10 00:41:41;;;;;;;7.93;4.60;;;-1.70;99.90;;;;;;5052724;28;20049;-88
2022/04/10 00:44:10;;;;;;;4.85;3.20;;;-1.60;99.90;;;;;;5054069;28;20388;-88
2022/04/10 00:46:38;;;;;;;9.27;3.45;;;-1.60;99.90;;;;;;5054146;28;20083;-88
2022/04/10 00:49:05;;;;;;;6.13;3.30;;;-1.50;99.90;;;;;;5053034;28;20124;-88
2022/04/10 00:51:46;;;;;;;5.43;3.40;;;-1.50;99.90;;;;;;5053325;28;20136;-87
2022/04/10 00:54:18;;;;;;;4.43;3.28;;;-1.50;99.90;;;;;;5054105;28;20085;-88
2022/04/10 00:56:45;;;;;;;7.55;4.50;;;-1.50;99.90;;;;;;5053077;28;20056;-88
2022/04/10 00:59:13;;;;;;;11.55;5.68;;;-1.30;99.90;;;;;;5054336;28;20128;-88
2022/04/10 01:01:44;;;;;;;13.73;5.28;;;-1.30;99.90;;;;;;5053222;28;20550;-88
2022/04/10 01:04:31;;;;;;;12.10;5.03;;;-1.40;99.90;;;;;;5054561;28;20055;-88
2022/04/10 01:06:59;;;;;;;10.60;5.63;;;-1.40;99.90;;;;;;5054574;28;20107;-88
2022/04/10 01:09:27;;;;;;;11.65;5.07;;;-1.40;99.90;;;;;;5052919;28;20296;-88
2022/04/10 01:11:54;;;;;;;15.18;5.85;;;-1.50;99.90;;;;;;5052411;28;20052;-87
2022/04/10 01:14:22;;;;;;;7.85;5.03;;;-1.60;99.90;;;;;;5052967;28;20144;-88
2022/04/10 01:16:49;;;;;;;10.50;6.05;;;-1.70;99.90;;;;;;5052754;28;20049;-89
2022/04/10 01:19:17;;;;;;;10.55;5.93;;;-1.70;99.90;;;;;;5052820;28;20612;-88
2022/04/10 01:21:46;;;;;;;11.68;6.63;;;-1.60;99.90;;;;;;5053750;28;20057;-88
2022/04/10 01:24:14;;;;;;;15.82;6.55;;;-1.60;99.90;;;;;;5052817;28;20053;-88
2022/04/10 01:26:43;;;;;;;13.20;6.35;;;-1.60;99.90;;;;;;5053473;28;20131;-88
2022/04/10 01:29:15;;;;;;;11.45;5.75;;;-1.60;99.90;;;;;;5052692;28;20045;-87
2022/04/10 01:31:45;;;;;;;17.17;6.22;;;-1.70;99.90;;;;;;5053526;28;20052;-88
2022/04/10 01:34:14;;;;;;;13.30;5.05;;;-1.80;99.90;;;;;;5052225;28;20045;-88
2022/04/10 01:36:42;;;;;;;10.23;5.15;;;-1.80;99.90;;;;;;5053360;28;20077;-88
2022/04/10 01:39:11;;;;;;;8.98;4.90;;;-1.80;99.90;;;;;;5052172;28;20045;-87
2022/04/10 01:41:38;;;;;;;9.45;6.00;;;-1.70;99.90;;;;;;5052335;28;20053;-88
2022/04/10 01:44:06;;;;;;;10.07;5.05;;;-1.70;99.90;;;;;;5052677;28;20049;-88
2022/04/10 01:46:34;;;;;;;9.13;6.18;;;-1.60;99.90;;;;;;5052289;28;20051;-88
2022/04/10 01:49:02;;;;;;;12.45;5.65;;;-1.60;99.90;;;;;;5052653;28;20057;-89
2022/04/10 01:51:29;;;;;;;8.80;5.07;;;-1.50;99.90;;;;;;5052728;28;20079;-89
2022/04/10 01:53:56;;;;;;;8.38;4.32;;;-1.50;99.90;;;;;;5053340;28;20061;-88
2022/04/10 01:56:24;;;;;;;10.27;4.40;;;-1.60;99.90;;;;;;5052914;28;20044;-88
2022/04/10 01:58:53;;;;;;;11.10;5.05;;;-1.60;99.90;;;;;;5051806;28;20425;-88
2022/04/10 02:01:22;;;;;;;5.32;4.00;;;-1.60;99.90;;;;;;5052032;28;20131;-88
2022/04/10 02:03:52;;;;;;;10.82;5.13;;;-1.50;99.90;;;;;;5052057;28;20045;-89
2022/04/10 02:06:19;;;;;;;11.15;5.20;;;-1.40;99.90;;;;;;5051974;28;20053;-88
2022/04/10 02:08:46;;;;;;;6.90;5.22;;;-1.20;99.90;;;;;;5052968;28;20048;-88
2022/04/10 02:11:15;;;;;;;8.43;5.35;;;-1.10;99.90;;;;;;5052709;28;20416;-89
2022/04/10 02:13:43;;;;;;;7.57;4.80;;;-0.90;99.90;;;;;;5051473;28;20140;-88
2022/04/10 02:16:18;;;;;;;12.68;5.72;;;-0.80;99.90;;;;;;5051782;28;20124;-88
2022/04/10 02:18:46;;;;;;;11.30;5.93;;;-0.70;99.90;;;;;;5052317;28;20053;-88
2022/04/10 02:21:13;;;;;;;10.70;5.13;;;-0.70;99.90;;;;;;5053172;28;20136;-89
2022/04/10 02:23:40;;;;;;;8.95;5.00;;;-0.60;99.90;;;;;;5052760;28;20482;-88
2022/04/10 02:26:10;;;;;;;12.35;5.93;;;-0.60;99.90;;;;;;5051180;28;20049;-88
2022/04/10 02:28:38;;;;;;;7.75;5.75;;;-0.50;99.90;;;;;;5051958;28;20228;-88
2022/04/10 02:31:05;;;;;;;7.60;5.63;;;-0.50;99.90;;;;;;5052581;28;20520;-88
2022/04/10 02:33:33;;;;;;;8.00;5.30;;;-0.40;99.90;;;;;;5051917;28;20136;-88
2022/04/10 02:36:00;;;;;;;11.43;4.43;;;-0.40;99.90;;;;;;5052505;28;20049;-89
2022/04/10 02:38:27;;;;;;;9.85;4.38;;;-0.40;99.90;;;;;;5051625;28;20080;-88
2022/04/10 02:40:54;;;;;;;10.57;3.58;;;-0.50;99.90;;;;;;5052343;28;20553;-89
2022/04/10 02:43:21;;;;;;;7.28;3.47;;;-0.60;99.90;;;;;;5052555;28;20049;-88
2022/04/10 02:45:48;;;;;;;4.93;3.05;;;-0.80;99.90;;;;;;5052050;28;20502;-88
2022/04/10 02:48:15;;;;;;;6.03;3.35;;;-0.90;99.90;;;;;;5051701;28;20122;-88
2022/04/10 02:50:41;;;;;;;8.98;3.25;;;-1.00;99.90;;;;;;5053755;28;20128;-88
2022/04/10 02:53:08;;;;;;;5.30;3.08;;;-1.10;99.90;;;;;;5055342;28;20132;-88
2022/04/10 02:55:35;;;;;;;5.53;2.92;;;-1.20;99.90;;;;;;5054964;28;20131;-88
2022/04/10 02:58:02;;;;;;;6.28;2.80;;;-1.20;99.90;;;;;;5055015;28;20091;-88
2022/04/10 03:00:29;;;;;;;6.43;3.05;;;-1.30;99.90;;;;;;5056276;28;20044;-88
2022/04/10 03:02:57;;;;;;;5.53;3.28;;;-1.40;99.90;;;;;;5054945;28;20071;-88
2022/04/10 03:05:23;;;;;;;6.78;2.75;;;-1.50;99.90;;;;;;5055726;28;20079;-88
2022/04/10 03:07:54;;;;;;;4.80;3.47;;;-1.50;99.90;;;;;;5055885;28;20060;-88
2022/04/10 03:10:21;;;;;;;6.35;2.80;;;-1.60;99.90;;;;;;5055099;28;20057;-88
2022/04/10 03:12:48;;;;;;;5.95;2.40;;;-1.70;99.90;;;;;;5055080;28;20049;-87
2022/04/10 03:15:15;;;;;;;4.65;2.67;;;-1.70;99.90;;;;;;5054335;28;20133;-88
2022/04/10 03:17:42;;;;;;;7.15;3.00;;;-1.80;99.90;;;;;;5054450;28;20559;-88
2022/04/10 03:20:11;;;;;;;3.78;2.60;;;-1.80;99.90;;;;;;5054586;28;20069;-88
2022/04/10 03:22:39;;;;;;;8.15;2.78;;;-1.80;99.90;;;;;;5055630;28;20091;-88
2022/04/10 03:25:07;;;;;;;6.25;2.95;;;-1.80;99.90;;;;;;5055549;28;20049;-89
2022/04/10 03:27:34;;;;;;;6.55;3.60;;;-1.70;99.90;;;;;;5054555;28;20494;-88
2022/04/10 03:30:01;;;;;;;7.13;3.88;;;-1.70;99.90;;;;;;5054262;28;20045;-88
2022/04/10 03:32:27;;;;;;;9.82;5.10;;;-1.40;99.90;;;;;;5054439;28;20099;-88
2022/04/10 03:34:54;;;;;;;6.57;5.00;;;-1.20;99.90;;;;;;5055309;28;20564;-88
2022/04/10 03:37:21;;;;;;;10.70;5.03;;;-1.10;99.90;;;;;;5056456;28;20053;-88
2022/04/10 03:39:47;;;;;;;9.00;5.05;;;-1.00;99.90;;;;;;5053966;28;20087;-88
2022/04/10 03:42:14;;;;;;;7.63;4.30;;;-0.90;99.90;;;;;;5053650;28;20539;-88
2022/04/10 03:44:41;;;;;;;10.40;4.20;;;-0.80;99.90;;;;;;5055171;28;20128;-88
2022/04/10 03:47:08;;;;;;;6.45;3.97;;;-0.80;99.90;;;;;;5054900;28;20056;-88
2022/04/10 03:49:34;;;;;;;8.98;4.53;;;-0.90;99.90;;;;;;5053534;28;20049;-88
2022/04/10 03:52:01;;;;;;;7.88;3.70;;;-0.90;99.90;;;;;;5054264;28;20049;-88
2022/04/10 03:54:28;;;;;;;8.57;3.38;;;-1.00;99.90;;;;;;5054198;28;20088;-88
2022/04/10 03:56:55;;;;;;;11.43;4.43;;;-1.10;99.90;;;;;;5054797;28;20045;-87
2022/04/10 03:59:24;;;;;;;8.30;3.90;;;-1.20;99.90;;;;;;5053822;28;20045;-88
2022/04/10 04:01:51;;;;;;;5.93;3.78;;;-1.10;99.90;;;;;;5053445;28;20059;-88
2022/04/10 04:04:18;;;;;;;8.35;4.00;;;-1.20;99.90;;;;;;5053738;28;20084;-88
2022/04/10 04:06:45;;;;;;;8.02;3.88;;;-1.00;99.90;;;;;;5053672;28;20521;-88
2022/04/10 04:09:11;;;;;;;7.35;4.35;;;-0.90;99.90;;;;;;5053701;28;20230;-87
2022/04/10 04:11:38;;;;;;;5.88;4.35;;;-0.90;99.90;;;;;;5053700;28;20068;-88
2022/04/10 04:14:05;;;;;;;8.52;4.25;;;-0.80;99.90;;;;;;5054932;28;20136;-87
2022/04/10 04:16:33;;;;;;;9.73;5.15;;;-0.70;99.90;;;;;;5054735;28;20110;-88
2022/04/10 04:19:00;;;;;;;10.10;4.55;;;-0.60;99.90;;;;;;5053186;28;20103;-88
2022/04/10 04:21:27;;;;;;;11.95;4.70;;;-0.60;99.90;;;;;;5053665;28;20083;-88
2022/04/10 04:23:53;;;;;;;7.47;4.78;;;-0.50;99.90;;;;;;5054318;28;20053;-88
2022/04/10 04:26:20;;;;;;;6.95;6.13;;;-0.50;99.90;;;;;;5054321;28;20427;-88
2022/04/10 04:28:47;;;;;;;9.13;6.28;;;-0.50;99.90;;;;;;5053428;28;20136;-88
2022/04/10 04:31:13;;;;;;;9.75;5.43;;;-0.50;99.90;;;;;;5053340;28;20401;-88
2022/04/10 04:33:40;;;;;;;8.65;4.78;;;-0.40;99.90;;;;;;5053342;28;20045;-88
2022/04/10 04:36:07;;;;;;;11.50;4.93;;;-0.40;99.90;;;;;;5052949;28;20077;-88
2022/04/10 04:38:34;;;;;;;9.60;5.22;;;-0.40;99.90;;;;;;5053260;28;20508;-88
2022/04/10 04:41:01;;;;;;;8.10;4.50;;;-0.40;99.90;;;;;;5054008;28;20133;-88
2022/04/10 04:43:27;;;;;;;5.88;4.95;;;-0.30;99.90;;;;;;5053251;28;20580;-88
2022/04/10 04:45:54;;;;;;;7.85;4.55;;;-0.30;99.90;;;;;;5053988;28;20128;-88
2022/04/10 04:48:21;;;;;;;7.82;4.85;;;-0.20;99.90;;;;;;5054628;28;20052;-88
2022/04/10 04:50:48;;;;;;;6.50;4.57;;;-0.20;99.90;;;;;;5060900;28;20076;-88
2022/04/10 04:53:15;;;;;;;7.35;5.10;;;-0.10;99.90;;;;;;5053278;28;20394;-88
2022/04/10 04:55:42;;;;;;;11.18;5.55;;;-0.10;99.90;;;;;;5053975;28;20045;-88
2022/04/10 04:58:08;;;;;;;9.63;5.50;;;0.00;99.90;;;;;;5052602;28;20561;-88
2022/04/10 05:00:35;;;;;;;7.85;5.07;;;0.00;99.90;;;;;;5052668;28;20127;-88
2022/04/10 05:03:02;;;;;;;9.07;5.68;;;0.00;99.90;;;;;;5053712;28;20537;-88
2022/04/10 05:05:29;;;;;;;10.13;6.10;;;0.10;99.90;;;;;;5052427;28;20055;-88
2022/04/10 05:07:55;;;;;;;8.85;6.35;;;0.10;99.90;;;;;;5053765;28;20049;-88
2022/04/10 05:10:22;;;;;;;7.93;6.18;;;0.20;99.90;;;;;;5052759;28;20040;-88
2022/04/10 05:12:49;;;;;;;9.00;6.35;;;0.30;99.90;;;;;;5051848;28;20489;-87
2022/04/10 05:15:16;;;;;;;8.90;5.82;;;0.30;99.90;;;;;;5053336;28;20140;-88
2022/04/10 05:17:42;;;;;;;8.00;6.15;;;0.40;99.90;;;;;;5053407;28;20080;-88
2022/04/10 05:20:10;;;;;;;7.13;5.32;;;0.40;99.90;;;;;;5052240;28;20148;-87
2022/04/10 05:22:36;;;;;;;15.13;7.75;;;0.50;99.90;;;;;;5052193;28;20107;-88
2022/04/10 05:25:03;;;;;;;29.33;10.63;;;0.50;99.90;;;;;;5052254;28;20049;-88
2022/04/10 05:27:30;;;;;;;21.80;9.52;;;0.60;99.90;;;;;;5053047;28;20099;-88
2022/04/10 05:29:57;;;;;;;11.23;7.35;;;0.60;99.90;;;;;;5052302;28;20131;-88
2022/04/10 05:32:24;;;;;;;6.68;5.47;;;0.60;99.90;;;;;;5051605;28;20136;-88
2022/04/10 05:34:50;;;;;;;7.32;6.00;;;0.70;99.90;;;;;;5046233;28;20505;-87
2022/04/10 05:37:17;;;;;;;8.32;6.53;;;0.70;99.90;;;;;;5076492;28;20482;-88
2022/04/10 05:39:44;;;;;;;11.85;7.03;;;0.80;99.90;;;;;;5051624;28;20051;-88
2022/04/10 05:42:10;;;;;;;11.93;6.07;;;0.80;99.90;;;;;;5049513;28;20393;-88
2022/04/10 05:44:37;;;;;;;7.75;6.25;;;0.80;99.90;;;;;;5053239;28;20123;-89
2022/04/10 05:47:04;;;;;;;9.43;5.65;;;0.90;99.90;;;;;;5052269;28;20048;-88
2022/04/10 05:49:31;;;;;;;8.82;6.43;;;0.90;99.90;;;;;;5085492;28;20464;-88
2022/04/10 05:51:58;;;;;;;7.38;5.13;;;0.90;99.90;;;;;;5052088;28;20080;-88
2022/04/10 05:54:25;;;;;;;13.82;7.03;;;1.00;99.90;;;;;;5085197;28;20136;-88
2022/04/10 05:56:51;;;;;;;35.78;24.00;;;1.00;99.90;;;;;;5053272;28;20459;-87
2022/04/10 05:59:18;;;;;;;55.95;26.52;;;1.30;99.90;;;;;;5053014;28;20088;-87
2022/04/10 06:01:45;;;;;;;1999.90;568.60;;;1.50;99.90;;;;;;5051955;28;20049;-86
2022/04/10 06:04:12;;;;;;;1999.90;312.83;;;2.30;99.90;;;;;;5052557;28;20059;-86
2022/04/10 06:06:39;;;;;;;53.38;39.80;;;3.60;99.90;;;;;;5055439;28;20049;-87
2022/04/10 06:09:05;;;;;;;34.65;26.90;;;4.40;99.90;;;;;;5052049;28;20137;-87
2022/04/10 06:11:32;;;;;;;29.67;20.77;;;4.20;99.90;;;;;;5052006;28;20881;-86
2022/04/10 06:13:59;;;;;;;24.77;20.00;;;3.50;99.90;;;;;;5052238;28;20056;-86
2022/04/10 06:16:25;;;;;;;13.18;11.60;;;3.10;99.90;;;;;;5052292;28;20045;-86
2022/04/10 06:18:52;;;;;;;9.00;8.10;;;3.60;99.90;;;;;;5051685;28;20060;-86
2022/04/10 06:21:19;;;;;;;7.15;6.13;;;4.60;99.90;;;;;;5084870;28;20561;-86
2022/04/10 06:23:46;;;;;;;6.78;4.40;;;5.30;99.90;;;;;;5085052;28;20053;-87
2022/04/10 06:26:13;;;;;;;4.50;4.20;;;6.30;99.90;;;;;;5055449;28;20045;-86
2022/04/10 06:28:40;;;;;;;6.03;3.72;;;7.20;99.90;;;;;;5089037;28;20053;-86
2022/04/10 06:31:07;;;;;;;21.65;15.05;;;7.60;99.90;;;;;;5055545;28;20114;-85
2022/04/10 06:33:34;;;;;;;15.82;9.40;;;7.90;99.90;;;;;;5056316;28;20485;-85
2022/04/10 06:36:01;;;;;;;6.97;3.33;;;8.60;99.90;;;;;;5088555;28;20548;-85
2022/04/10 06:38:27;;;;;;;7.47;3.72;;;9.60;99.90;;;;;;5056138;28;20135;-85
2022/04/10 06:40:54;;;;;;;3.42;1.38;;;10.00;99.90;;;;;;5056398;28;20075;-86
2022/04/10 06:43:21;;;;;;;4.93;2.33;;;8.80;99.90;;;;;;5055375;28;20049;-85
2022/04/10 06:45:48;;;;;;;3.70;2.70;;;8.00;99.90;;;;;;5055478;28;20468;-85
2022/04/10 06:48:15;;;;;;;5.13;1.88;;;7.30;99.90;;;;;;5054289;28;20583;-86
2022/04/10 06:50:42;;;;;;;7.28;2.80;;;6.80;99.90;;;;;;5055085;28;20048;-86
2022/04/10 06:53:09;;;;;;;2.85;1.52;;;5.90;99.90;;;;;;5054904;28;20049;-85
2022/04/10 06:55:36;;;;;;;5.90;2.42;;;5.30;99.90;;;;;;5055816;28;20041;-85
2022/04/10 06:58:03;;;;;;;2.65;1.55;;;5.20;99.90;;;;;;5055112;28;20482;-85
2022/04/10 07:00:31;;;;;;;2.63;1.38;;;5.40;99.90;;;;;;5054613;28;20048;-86
2022/04/10 07:03:01;;;;;;;2.20;1.52;;;5.70;99.90;;;;;;5055251;28;20056;-85
2022/04/10 07:05:28;;;;;;;7.90;1.65;;;6.60;99.90;;;;;;5088384;28;20145;-86
2022/04/10 07:07:55;;;;;;;4.20;1.35;;;7.60;99.90;;;;;;5055094;28;20052;-86
2022/04/10 07:10:22;;;;;;;2.33;1.67;;;7.40;99.90;;;;;;5055013;28;20135;-86
2022/04/10 07:12:50;;;;;;;4.05;1.20;;;6.80;99.90;;;;;;5054756;28;20102;-85
2022/04/10 07:15:18;;;;;;;8.52;1.55;;;6.30;99.90;;;;;;5055061;28;20041;-87
2022/04/10 07:17:49;;;;;;;4.18;1.50;;;5.80;99.90;;;;;;5054686;28;20631;-85
2022/04/10 07:20:16;;;;;;;3.47;0.93;;;5.70;99.90;;;;;;5055272;28;20478;-86
2022/04/10 07:25:29;;;;;;;5.68;1.20;;;7.90;99.90;;;;;;5055884;28;20099;-86
2022/04/10 07:27:56;;;;;;;2.13;0.88;;;8.60;99.90;;;;;;5055792;28;20132;-86
2022/04/10 07:30:22;;;;;;;1.15;0.82;;;9.30;99.90;;;;;;5055266;28;20104;-86
2022/04/10 07:32:54;;;;;;;4.65;1.17;;;10.00;99.90;;;;;;5046942;28;20052;-86
2022/04/10 07:35:22;;;;;;;4.93;1.20;;;10.30;98.00;;;;;;5053461;28;20052;-86
2022/04/10 07:37:49;;;;;;;4.43;1.20;;;11.10;96.80;;;;;;5054220;28;20086;-88
2022/04/10 07:40:16;;;;;;;3.35;1.30;;;11.50;94.20;;;;;;5055323;28;20093;-88
2022/04/10 07:42:44;;;;;;;3.13;1.05;;;11.30;92.70;;;;;;5054530;28;20135;-87
2022/04/10 07:47:25;;;;;;;2.50;1.00;;;10.30;93.60;;;;;;5053805;28;20504;-86
2022/04/10 07:48:02;;;;;;;4.05;0.80;;;10.90;94.00;;;;;;5046966;28;20053;-86
2022/04/10 07:50:29;;;;;;;2.83;1.02;;;11.30;92.80;;;;;;5046778;28;20099;-88
2022/04/10 07:52:57;;;;;;;3.17;0.90;;;12.40;91.90;;;;;;5053713;28;20084;-86
2022/04/10 07:55:25;;;;;;;5.38;1.00;;;12.90;87.70;;;;;;5054229;28;20470;-87
2022/04/10 07:57:52;;;;;;;5.50;1.52;;;13.10;84.10;;;;;;5054070;28;20065;-86
2022/04/10 08:00:19;;;;;;;4.55;1.27;;;13.10;86.60;;;;;;5055402;28;20071;-87
2022/04/10 08:02:48;;;;;;;8.05;1.38;;;12.20;81.70;;;;;;5055996;28;20049;-89
2022/04/10 08:05:17;;;;;;;1.52;0.95;;;10.80;82.00;;;;;;5054277;28;20114;-88
2022/04/10 08:07:45;;;;;;;2.20;1.05;;;9.90;86.90;;;;;;5054590;28;20049;-88
2022/04/10 08:10:12;;;;;;;6.35;1.20;;;9.50;89.30;;;;;;5054330;28;20045;-88
2022/04/10 08:12:41;;;;;;;5.03;1.08;;;8.60;91.00;;;;;;5054176;28;20112;-87
2022/04/10 08:15:09;;;;;;;2.63;0.90;;;8.50;92.40;;;;;;5051930;28;20045;-87
2022/04/10 08:17:36;;;;;;;1.85;0.93;;;8.50;92.80;;;;;;5054483;28;20049;-86
2022/04/10 08:20:04;;;;;;;2.85;1.10;;;8.30;92.80;;;;;;5054632;28;20135;-89
2022/04/10 08:22:32;;;;;;;3.67;1.25;;;8.10;93.00;;;;;;5052833;28;20405;-87
2022/04/10 08:25:07;;;;;;;2.25;1.05;;;7.70;95.70;;;;;;5052056;28;20049;-87
2022/04/10 08:27:34;;;;;;;4.30;1.20;;;8.50;95.40;;;;;;5045227;28;20482;-90
2022/04/10 08:30:02;;;;;;;3.97;1.10;;;9.30;92.80;;;;;;5050459;28;20109;-86
2022/04/10 08:32:38;;;;;;;9.60;1.27;;;9.70;90.60;;;;;;5053419;28;20077;-85
2022/04/10 08:35:06;;;;;;;3.33;0.95;;;10.20;90.70;;;;;;5055106;28;20131;-90
2022/04/10 08:37:34;;;;;;;3.97;1.20;;;10.10;87.80;;;;;;5057647;28;20069;-92
2022/04/10 08:40:01;;;;;;;4.63;1.00;;;9.20;87.80;;;;;;5052909;28;20059;-91
2022/04/10 08:42:28;;;;;;;5.03;1.15;;;8.30;90.70;;;;;;5051119;28;20045;-90
2022/04/10 08:44:56;;;;;;;5.78;1.30;;;7.90;91.80;;;;;;5052753;28;20048;-89
2022/04/10 08:47:23;;;;;;;6.85;1.50;;;8.30;92.50;;;;;;5052911;28;20104;-92
2022/04/10 08:49:52;;;;;;;3.17;1.02;;;8.50;90.10;;;;;;5053175;28;20053;-91
2022/04/10 08:52:20;;;;;;;4.60;0.88;;;8.30;90.90;;;;;;5054636;28;20482;-90
2022/04/10 08:54:49;;;;;;;2.45;0.90;;;9.60;90.60;;;;;;5053848;28;20052;-89
2022/04/10 08:57:16;;;;;;;8.50;1.08;;;10.40;86.10;;;;;;5052818;28;20131;-90
2022/04/10 08:59:44;;;;;;;4.75;1.13;;;10.30;86.70;;;;;;5053301;28;20057;-86
2022/04/10 09:02:12;;;;;;;4.28;1.10;;;10.00;86.30;;;;;;5051980;28;20499;-92
2022/04/10 09:04:42;;;;;;;3.50;1.05;;;9.30;85.80;;;;;;5050452;28;20041;-87
2022/04/10 09:07:10;;;;;;;3.00;1.15;;;9.20;88.70;;;;;;5051905;28;20081;-87
2022/04/10 09:09:41;;;;;;;5.35;0.90;;;9.30;90.10;;;;;;5053658;28;20080;-88
2022/04/10 09:12:08;;;;;;;6.63;1.70;;;10.00;86.90;;;;;;5053677;28;20139;-91
2022/04/10 09:14:40;;;;;;;4.72;1.23;;;10.60;84.70;;;;;;5052719;28;20592;-90
2022/04/10 09:17:15;;;;;;;4.05;1.20;;;10.50;82.50;;;;;;5051851;28;20067;-86
2022/04/10 09:20:01;;;;;;;4.35;0.80;;;10.20;80.20;;;;;;5050876;28;20052;-88
2022/04/10 09:22:36;;;;;;;4.53;1.45;;;10.60;81.50;;;;;;5053246;28;20059;-90
2022/04/10 09:25:05;;;;;;;4.03;0.73;;;10.00;80.30;;;;;;5052523;28;20133;-86
2022/04/10 09:27:35;;;;;;;3.15;0.77;;;9.50;82.50;;;;;;5053013;28;20359;-86
2022/04/10 09:30:03;;;;;;;4.00;1.00;;;10.40;84.80;;;;;;5052193;28;20041;-86
2022/04/10 09:32:45;;;;;;;2.92;0.90;;;11.20;85.70;;;;;;5051803;28;20056;-86
2022/04/10 09:35:14;;;;;;;4.32;0.80;;;11.40;79.00;;;;;;5051820;28;20087;-86
2022/04/10 09:37:48;;;;;;;3.58;0.90;;;11.50;79.30;;;;;;5052129;28;20496;-87
2022/04/10 09:40:25;;;;;;;3.25;0.85;;;10.60;77.80;;;;;;5052190;28;20092;-87
2022/04/10 09:43:10;;;;;;;5.30;0.80;;;10.50;82.90;;;;;;5052287;28;20135;-86
2022/04/10 09:45:46;;;;;;;1.77;0.70;;;11.70;78.80;;;;;;5051703;28;20053;-86
2022/04/10 09:48:27;;;;;;;4.00;1.15;;;12.60;77.60;;;;;;5054010;28;20060;-88
2022/04/10 09:50:58;;;;;;;3.60;1.10;;;12.80;74.60;;;;;;5053372;28;20045;-86
2022/04/10 09:53:29;;;;;;;2.15;0.73;;;12.00;73.20;;;;;;5051944;28;20407;-86
2022/04/10 09:56:04;;;;;;;3.63;1.00;;;11.50;71.90;;;;;;5050981;28;20049;-86
2022/04/10 09:58:32;;;;;;;3.30;0.88;;;11.80;75.00;;;;;;5053869;28;20482;-87
2022/04/10 10:01:00;;;;;;;5.25;1.20;;;11.70;73.80;;;;;;5056010;28;20139;-88
2022/04/10 10:03:36;;;;;;;3.15;1.02;;;11.10;73.00;;;;;;5056133;28;20042;-87
2022/04/10 10:06:07;;;;;;;2.90;1.00;;;10.30;75.80;;;;;;5056508;28;20053;-86
2022/04/10 10:08:35;;;;;;;3.20;1.42;;;10.20;77.40;;;;;;5055972;28;20107;-87
2022/04/10 10:11:02;;;;;;;3.95;1.15;;;10.80;79.20;;;;;;5056689;28;20049;-88
2022/04/10 10:13:30;;;;;;;2.35;0.85;;;11.30;77.60;;;;;;5056269;28;20523;-88
2022/04/10 10:15:58;;;;;;;7.53;1.30;;;11.70;78.30;;;;;;5056527;28;20087;-87
2022/04/10 10:18:25;;;;;;;6.30;1.10;;;12.40;74.30;;;;;;5056599;28;20041;-86
2022/04/10 10:20:52;;;;;;;3.95;1.05;;;11.50;72.60;;;;;;5056330;28;20088;-86
2022/04/10 10:23:22;;;;;;;3.95;1.20;;;10.70;75.80;;;;;;5056952;28;20045;-88
2022/04/10 10:26:07;;;;;;;3.03;0.93;;;10.30;77.00;;;;;;5056614;28;20057;-86
2022/04/10 10:29:02;;;;;;;0.80;0.50;;;11.10;77.60;;;;;;5055619;28;20056;-86
2022/04/10 10:31:47;;;;;;;4.45;1.05;;;11.80;73.20;;;;;;5056235;28;20148;-87
2022/04/10 10:34:15;;;;;;;2.58;1.30;;;14.30;72.00;;;;;;5055826;28;20048;-87
2022/04/10 10:36:42;;;;;;;2.20;0.80;;;15.10;64.70;;;;;;5056426;28;20048;-87
2022/04/10 10:39:08;;;;;;;3.15;0.93;;;14.80;64.10;;;;;;5056791;28;20063;-86
2022/04/10 10:41:38;;;;;;;2.55;0.90;;;14.60;63.80;;;;;;5055444;28;20127;-88
2022/04/10 10:44:38;;;;;;;3.55;0.85;;;15.30;62.80;;;;;;5055291;28;20056;-87
2022/04/10 10:47:05;;;;;;;1.40;0.60;;;14.40;61.70;;;;;;5046336;28;20051;-87
2022/04/10 10:49:44;;;;;;;2.67;0.60;;;12.70;65.40;;;;;;5056185;28;20417;-89
2022/04/10 10:52:13;;;;;;;7.95;1.10;;;11.70;69.80;;;;;;5055297;28;20466;-86
2022/04/10 10:54:46;;;;;;;2.40;0.75;;;11.80;72.40;;;;;;5055265;28;20048;-87
2022/04/10 10:57:23;;;;;;;4.32;0.90;;;13.30;70.50;;;;;;5055386;28;20051;-88
2022/04/10 11:00:12;;;;;;;2.50;0.77;;;15.00;66.10;;;;;;5055234;28;20075;-87
2022/04/10 11:02:39;;;;;;;3.00;0.98;;;16.80;61.00;;;;;;5040318;28;20045;-88
2022/04/10 11:05:25;;;;;;;9.23;1.63;;;17.80;58.20;;;;;;5055704;28;20056;-87
2022/04/10 11:08:09;;;;;;;1.13;0.65;;;18.10;56.80;;;;;;5055177;28;20527;-89
2022/04/10 11:10:39;;;;;;;2.13;0.70;;;17.70;56.10;;;;;;5054162;28;20135;-89
2022/04/10 11:13:08;;;;;;;3.50;0.90;;;17.00;56.70;;;;;;5054633;28;20052;-88
2022/04/10 11:15:47;;;;;;;4.85;1.10;;;15.90;57.40;;;;;;5055758;28;20115;-89
2022/04/10 11:18:23;;;;;;;2.78;0.75;;;15.50;58.20;;;;;;5055654;28;20106;-87
2022/04/10 11:20:58;;;;;;;2.47;0.85;;;14.00;61.20;;;;;;5054413;28;20049;-89
2022/04/10 11:23:30;;;;;;;4.30;1.10;;;12.70;64.90;;;;;;5055546;28;20049;-89
2022/04/10 11:26:07;;;;;;;2.70;0.80;;;11.20;71.00;;;;;;5054300;28;20057;-86
2022/04/10 11:29:11;;;;;;;6.22;0.90;;;10.30;75.20;;;;;;5055319;28;20045;-85
2022/04/10 11:31:40;;;;;;;2.78;0.90;;;9.30;78.00;;;;;;5049744;28;20140;-86
2022/04/10 11:34:07;;;;;;;3.63;0.73;;;10.20;81.70;;;;;;5055174;28;20045;-86
2022/04/10 11:36:47;;;;;;;1.48;0.73;;;12.30;82.50;;;;;;5055205;28;20049;-87
2022/04/10 11:39:16;;;;;;;4.13;1.08;;;14.70;73.70;;;;;;5055551;28;20131;-87
2022/04/10 11:41:43;;;;;;;1.15;0.40;;;15.70;65.50;;;;;;5055141;28;20049;-88
2022/04/10 11:44:09;;;;;;;1.80;0.52;;;16.70;62.80;;;;;;5054381;28;20138;-88
2022/04/10 11:46:37;;;;;;;1.65;0.50;;;17.40;59.40;;;;;;5053976;28;20053;-87
2022/04/10 11:49:04;;;;;;;1.40;0.55;;;17.30;58.90;;;;;;5055297;28;20485;-88
2022/04/10 11:51:31;;;;;;;3.17;0.80;;;17.00;58.20;;;;;;5054335;28;20175;-90
2022/04/10 11:53:58;;;;;;;4.05;2.35;;;16.60;58.80;;;;;;5054068;28;20049;-88
2022/04/10 11:56:25;;;;;;;2.50;1.88;;;15.90;59.70;;;;;;5055013;28;20045;-87
2022/04/10 11:58:52;;;;;;;2.88;1.40;;;15.00;60.20;;;;;;5053799;28;20494;-88
2022/04/10 12:01:19;;;;;;;2.20;0.90;;;14.00;62.20;;;;;;5054309;28;20131;-88
2022/04/10 12:03:49;;;;;;;1.00;0.45;;;12.90;64.40;;;;;;5053932;28;20440;-87
2022/04/10 12:06:20;;;;;;;1.77;0.70;;;12.40;67.80;;;;;;5053562;28;20571;-88
2022/04/10 12:08:51;;;;;;;2.53;0.70;;;11.70;71.40;;;;;;5053884;28;20045;-87
2022/04/10 12:11:18;;;;;;;1.40;0.80;;;11.50;74.30;;;;;;5053544;28;20493;-88
2022/04/10 12:13:44;;;;;;;4.05;0.93;;;10.70;74.30;;;;;;5055144;28;20132;-89
2022/04/10 12:16:16;;;;;;;4.18;0.63;;;9.30;88.10;;;;;;5053993;28;20052;-88
2022/04/10 12:18:52;;;;;;;1.88;0.68;;;8.30;95.90;;;;;;5058291;28;20040;-88
2022/04/10 12:21:20;;;;;;;0.63;0.60;;;7.40;99.90;;;;;;5054435;28;20056;-88
2022/04/10 12:24:08;;;;;;;2.63;0.52;;;6.80;99.90;;;;;;5054035;28;20608;-87
2022/04/10 12:26:36;;;;;;;0.60;0.47;;;6.70;99.90;;;;;;5053083;28;20131;-88
2022/04/10 12:29:04;;;;;;;2.53;0.60;;;6.80;99.90;;;;;;5054156;28;20136;-88
2022/04/10 12:31:32;;;;;;;0.82;0.80;;;7.10;99.90;;;;;;5054919;28;20163;-87
2022/04/10 12:34:00;;;;;;;2.53;0.70;;;7.50;99.90;;;;;;5053475;28;20103;-87
2022/04/10 12:36:28;;;;;;;0.52;0.52;;;8.50;99.90;;;;;;5053302;28;20072;-86
2022/04/10 12:38:55;;;;;;;2.55;1.02;;;8.70;99.90;;;;;;5054131;28;20052;-87
2022/04/10 12:41:32;;;;;;;6.95;1.80;;;8.90;99.90;;;;;;5053238;28;20049;-86
2022/04/10 12:44:04;;;;;;;2.92;0.90;;;9.30;99.90;;;;;;5054112;28;20128;-87
2022/04/10 12:46:39;;;;;;;0.80;0.50;;;10.10;99.90;;;;;;5053258;28;20087;-87
2022/04/10 12:49:10;;;;;;;5.15;0.80;;;10.70;99.90;;;;;;5053227;28;20049;-86
2022/04/10 12:51:49;;;;;;;7.03;1.67;;;10.50;99.90;;;;;;5053415;28;20075;-87
2022/04/10 12:54:16;;;;;;;1.23;0.55;;;;;;;;;;5053383;28;20053;-88
2022/04/10 12:56:44;;;;;;;2.90;1.05;;;;;;;;;;5054291;28;20127;-90
2022/04/10 12:59:10;;;;;;;4.57;1.08;;;9.30;99.90;;;;;;5053973;28;20135;-88